sensor_id;sensor_type;location;lat;lon;timestamp;P1;durP1;ratioP1;P2;durP2;ratioP2
64851;SDS011;56050;55.558;-4.644;2023-06-14T00:00:10;7.57;;;4.90;;
64851;SDS011;56050;55.558;-4.644;2023-06-14T00:02:38;8.90;;;4.05;;
64851;SDS011;56050;55.558;-4.644;2023-06-14T00:05:04;7.72;;;3.90;;
64851;SDS011;56050;55.558;-4.644;2023-06-14T00:07:34;9.68;;;3.88;;
64851;SDS011;56050;55.558;-4.644;2023-06-14T00:10:00;11.02;;;4.00;;
64851;SDS011;56050;55.558;-4.644;2023-06-14T00:12:27;8.05;;;3.70;;
64851;SDS011;56050;55.558;-4.644;2023-06-14T00:14:52;8.98;;;4.63;;
64851;SDS011;56050;55.558;-4.644;2023-06-14T00:17:17;9.18;;;4.35;;
64851;SDS011;56050;55.558;-4.644;2023-06-14T00:19:43;7.97;;;3.75;;
64851;SDS011;56050;55.558;-4.644;2023-06-14T00:22:08;7.85;;;4.55;;
64851;SDS011;56050;55.558;-4.644;2023-06-14T00:24:34;6.93;;;3.63;;
64851;SDS011;56050;55.558;-4.644;2023-06-14T00:27:00;7.10;;;3.53;;
64851;SDS011;56050;55.558;-4.644;2023-06-14T00:29:25;7.03;;;3.90;;
64851;SDS011;56050;55.558;-4.644;2023-06-14T00:31:51;8.55;;;4.00;;
64851;SDS011;56050;55.558;-4.644;2023-06-14T00:34:16;7.57;;;3.30;;
64851;SDS011;56050;55.558;-4.644;2023-06-14T00:36:41;6.72;;;3.65;;
64851;SDS011;56050;55.558;-4.644;2023-06-14T00:39:07;8.70;;;3.63;;
64851;SDS011;56050;55.558;-4.644;2023-06-14T00:41:32;11.10;;;3.67;;
64851;SDS011;56050;55.558;-4.644;2023-06-14T00:43:58;6.53;;;3.30;;
64851;SDS011;56050;55.558;-4.644;2023-06-14T00:46:24;6.93;;;3.40;;
64851;SDS011;56050;55.558;-4.644;2023-06-14T00:48:50;7.20;;;3.85;;
64851;SDS011;56050;55.558;-4.644;2023-06-14T00:51:16;6.20;;;3.30;;
64851;SDS011;56050;55.558;-4.644;2023-06-14T00:53:41;7.65;;;3.58;;
64851;SDS011;56050;55.558;-4.644;2023-06-14T00:56:11;9.20;;;4.25;;
64851;SDS011;56050;55.558;-4.644;2023-06-14T00:58:38;9.13;;;4.15;;
64851;SDS011;56050;55.558;-4.644;2023-06-14T01:01:04;7.90;;;3.80;;
64851;SDS011;56050;55.558;-4.644;2023-06-14T01:03:29;6.85;;;3.50;;
64851;SDS011;56050;55.558;-4.644;2023-06-14T01:09:01;7.45;;;3.45;;
64851;SDS011;56050;55.558;-4.644;2023-06-14T01:14:18;7.13;;;4.15;;
64851;SDS011;56050;55.558;-4.644;2023-06-14T01:16:46;10.30;;;4.88;;
64851;SDS011;56050;55.558;-4.644;2023-06-14T01:19:12;7.97;;;4.38;;
64851;SDS011;56050;55.558;-4.644;2023-06-14T01:21:40;9.07;;;4.90;;
64851;SDS011;56050;55.558;-4.644;2023-06-14T01:24:06;8.65;;;4.53;;
64851;SDS011;56050;55.558;-4.644;2023-06-14T01:26:33;9.85;;;4.50;;
64851;SDS011;56050;55.558;-4.644;2023-06-14T01:29:00;9.25;;;4.70;;
64851;SDS011;56050;55.558;-4.644;2023-06-14T01:31:26;10.52;;;5.18;;
64851;SDS011;56050;55.558;-4.644;2023-06-14T01:33:52;9.40;;;4.32;;
64851;SDS011;56050;55.558;-4.644;2023-06-14T01:36:18;9.82;;;3.92;;
64851;SDS011;56050;55.558;-4.644;2023-06-14T01:38:45;8.10;;;4.38;;
64851;SDS011;56050;55.558;-4.644;2023-06-14T01:41:11;10.02;;;3.80;;
64851;SDS011;56050;55.558;-4.644;2023-06-14T01:43:38;8.70;;;4.10;;
64851;SDS011;56050;55.558;-4.644;2023-06-14T01:46:04;8.68;;;4.30;;
64851;SDS011;56050;55.558;-4.644;2023-06-14T01:48:31;9.70;;;4.47;;
64851;SDS011;56050;55.558;-4.644;2023-06-14T01:50:57;8.50;;;3.75;;
64851;SDS011;56050;55.558;-4.644;2023-06-14T01:53:22;7.63;;;4.28;;
64851;SDS011;56050;55.558;-4.644;2023-06-14T01:55:48;8.27;;;4.03;;
64851;SDS011;56050;55.558;-4.644;2023-06-14T01:58:13;7.85;;;4.15;;
64851;SDS011;56050;55.558;-4.644;2023-06-14T02:00:41;8.57;;;4.25;;
64851;SDS011;56050;55.558;-4.644;2023-06-14T02:03:08;11.02;;;4.18;;
64851;SDS011;56050;55.558;-4.644;2023-06-14T02:05:33;7.93;;;4.07;;
64851;SDS011;56050;55.558;-4.644;2023-06-14T02:07:59;7.75;;;4.57;;
64851;SDS011;56050;55.558;-4.644;2023-06-14T02:10:25;9.05;;;3.63;;
64851;SDS011;56050;55.558;-4.644;2023-06-14T02:12:50;9.35;;;4.22;;
64851;SDS011;56050;55.558;-4.644;2023-06-14T02:15:16;9.40;;;4.80;;
64851;SDS011;56050;55.558;-4.644;2023-06-14T02:17:46;8.43;;;3.65;;
64851;SDS011;56050;55.558;-4.644;2023-06-14T02:22:40;10.23;;;4.18;;
64851;SDS011;56050;55.558;-4.644;2023-06-14T02:25:06;8.15;;;3.78;;
64851;SDS011;56050;55.558;-4.644;2023-06-14T02:27:32;7.97;;;4.10;;
64851;SDS011;56050;55.558;-4.644;2023-06-14T02:29:58;8.52;;;3.88;;
64851;SDS011;56050;55.558;-4.644;2023-06-14T02:32:24;7.63;;;4.28;;
64851;SDS011;56050;55.558;-4.644;2023-06-14T02:34:49;9.07;;;3.67;;
64851;SDS011;56050;55.558;-4.644;2023-06-14T02:37:17;11.02;;;4.10;;
64851;SDS011;56050;55.558;-4.644;2023-06-14T02:39:43;7.78;;;4.05;;
64851;SDS011;56050;55.558;-4.644;2023-06-14T02:42:08;6.80;;;3.20;;
64851;SDS011;56050;55.558;-4.644;2023-06-14T02:44:34;8.75;;;4.13;;
64851;SDS011;56050;55.558;-4.644;2023-06-14T02:47:00;9.07;;;4.88;;
64851;SDS011;56050;55.558;-4.644;2023-06-14T02:49:26;8.75;;;3.90;;
64851;SDS011;56050;55.558;-4.644;2023-06-14T02:51:51;8.55;;;3.95;;
64851;SDS011;56050;55.558;-4.644;2023-06-14T02:54:17;10.25;;;4.45;;
64851;SDS011;56050;55.558;-4.644;2023-06-14T02:56:43;10.77;;;4.10;;
64851;SDS011;56050;55.558;-4.644;2023-06-14T02:59:08;6.30;;;3.70;;
64851;SDS011;56050;55.558;-4.644;2023-06-14T03:01:34;9.60;;;4.55;;
64851;SDS011;56050;55.558;-4.644;2023-06-14T03:04:03;8.82;;;4.25;;
64851;SDS011;56050;55.558;-4.644;2023-06-14T03:06:29;8.98;;;4.50;;
64851;SDS011;56050;55.558;-4.644;2023-06-14T03:08:55;12.93;;;4.88;;
64851;SDS011;56050;55.558;-4.644;2023-06-14T03:11:24;8.25;;;4.65;;
64851;SDS011;56050;55.558;-4.644;2023-06-14T03:13:53;11.80;;;4.60;;
64851;SDS011;56050;55.558;-4.644;2023-06-14T03:16:20;10.20;;;5.43;;
64851;SDS011;56050;55.558;-4.644;2023-06-14T03:18:48;9.15;;;4.80;;
64851;SDS011;56050;55.558;-4.644;2023-06-14T03:21:14;10.43;;;4.93;;
64851;SDS011;56050;55.558;-4.644;2023-06-14T03:23:41;10.10;;;5.38;;
64851;SDS011;56050;55.558;-4.644;2023-06-14T03:26:07;9.55;;;4.85;;
64851;SDS011;56050;55.558;-4.644;2023-06-14T03:28:33;11.52;;;4.85;;
64851;SDS011;56050;55.558;-4.644;2023-06-14T03:30:58;10.13;;;4.95;;
64851;SDS011;56050;55.558;-4.644;2023-06-14T03:33:24;11.43;;;5.72;;
64851;SDS011;56050;55.558;-4.644;2023-06-14T03:35:50;12.27;;;5.32;;
64851;SDS011;56050;55.558;-4.644;2023-06-14T03:38:16;10.55;;;5.72;;
64851;SDS011;56050;55.558;-4.644;2023-06-14T03:40:42;12.25;;;5.07;;
64851;SDS011;56050;55.558;-4.644;2023-06-14T03:43:07;9.40;;;4.50;;
64851;SDS011;56050;55.558;-4.644;2023-06-14T03:45:33;9.48;;;4.80;;
64851;SDS011;56050;55.558;-4.644;2023-06-14T03:47:58;9.35;;;4.53;;
64851;SDS011;56050;55.558;-4.644;2023-06-14T03:50:25;9.65;;;5.82;;
64851;SDS011;56050;55.558;-4.644;2023-06-14T03:52:52;9.20;;;4.78;;
64851;SDS011;56050;55.558;-4.644;2023-06-14T03:55:17;9.57;;;4.88;;
64851;SDS011;56050;55.558;-4.644;2023-06-14T03:57:43;12.27;;;5.18;;
64851;SDS011;56050;55.558;-4.644;2023-06-14T04:00:09;9.68;;;4.78;;
64851;SDS011;56050;55.558;-4.644;2023-06-14T04:02:36;8.93;;;4.65;;
64851;SDS011;56050;55.558;-4.644;2023-06-14T04:05:02;12.82;;;4.97;;
64851;SDS011;56050;55.558;-4.644;2023-06-14T04:07:28;12.88;;;5.28;;
64851;SDS011;56050;55.558;-4.644;2023-06-14T04:09:54;10.68;;;5.05;;
64851;SDS011;56050;55.558;-4.644;2023-06-14T04:12:19;8.85;;;4.78;;
64851;SDS011;56050;55.558;-4.644;2023-06-14T04:14:45;10.82;;;4.70;;
64851;SDS011;56050;55.558;-4.644;2023-06-14T04:17:10;9.95;;;4.40;;
64851;SDS011;56050;55.558;-4.644;2023-06-14T04:19:36;10.10;;;5.13;;
64851;SDS011;56050;55.558;-4.644;2023-06-14T04:22:01;10.10;;;4.20;;
64851;SDS011;56050;55.558;-4.644;2023-06-14T04:24:27;10.13;;;4.68;;
64851;SDS011;56050;55.558;-4.644;2023-06-14T04:27:01;11.27;;;5.20;;
64851;SDS011;56050;55.558;-4.644;2023-06-14T04:29:26;8.77;;;4.93;;
64851;SDS011;56050;55.558;-4.644;2023-06-14T04:31:54;10.63;;;5.05;;
64851;SDS011;56050;55.558;-4.644;2023-06-14T04:34:24;10.38;;;4.68;;
64851;SDS011;56050;55.558;-4.644;2023-06-14T04:36:58;9.63;;;4.95;;
64851;SDS011;56050;55.558;-4.644;2023-06-14T04:39:26;8.52;;;4.70;;
64851;SDS011;56050;55.558;-4.644;2023-06-14T04:41:52;10.85;;;4.85;;
64851;SDS011;56050;55.558;-4.644;2023-06-14T04:44:21;11.38;;;5.57;;
64851;SDS011;56050;55.558;-4.644;2023-06-14T04:46:49;10.52;;;4.38;;
64851;SDS011;56050;55.558;-4.644;2023-06-14T04:49:15;8.25;;;4.63;;
64851;SDS011;56050;55.558;-4.644;2023-06-14T04:51:42;10.15;;;5.00;;
64851;SDS011;56050;55.558;-4.644;2023-06-14T04:54:09;12.68;;;5.65;;
64851;SDS011;56050;55.558;-4.644;2023-06-14T04:56:38;9.77;;;5.03;;
64851;SDS011;56050;55.558;-4.644;2023-06-14T04:59:07;9.90;;;5.35;;
64851;SDS011;56050;55.558;-4.644;2023-06-14T05:01:34;13.35;;;5.00;;
64851;SDS011;56050;55.558;-4.644;2023-06-14T05:03:59;12.30;;;4.75;;
64851;SDS011;56050;55.558;-4.644;2023-06-14T05:06:25;12.38;;;3.97;;
64851;SDS011;56050;55.558;-4.644;2023-06-14T05:08:52;8.90;;;4.20;;
64851;SDS011;56050;55.558;-4.644;2023-06-14T05:11:18;11.05;;;4.18;;
64851;SDS011;56050;55.558;-4.644;2023-06-14T05:13:43;10.05;;;5.57;;
64851;SDS011;56050;55.558;-4.644;2023-06-14T05:16:09;12.38;;;4.45;;
64851;SDS011;56050;55.558;-4.644;2023-06-14T05:18:36;11.80;;;5.95;;
64851;SDS011;56050;55.558;-4.644;2023-06-14T05:21:02;14.13;;;5.47;;
64851;SDS011;56050;55.558;-4.644;2023-06-14T05:23:29;11.93;;;4.95;;
64851;SDS011;56050;55.558;-4.644;2023-06-14T05:25:55;13.43;;;4.57;;
64851;SDS011;56050;55.558;-4.644;2023-06-14T05:28:21;17.45;;;5.65;;
64851;SDS011;56050;55.558;-4.644;2023-06-14T05:30:47;15.25;;;4.90;;
64851;SDS011;56050;55.558;-4.644;2023-06-14T05:33:12;11.73;;;4.70;;
64851;SDS011;56050;55.558;-4.644;2023-06-14T05:35:38;15.90;;;4.60;;
64851;SDS011;56050;55.558;-4.644;2023-06-14T05:38:03;12.20;;;4.35;;
64851;SDS011;56050;55.558;-4.644;2023-06-14T05:40:28;12.43;;;4.57;;
64851;SDS011;56050;55.558;-4.644;2023-06-14T05:42:54;11.30;;;4.40;;
64851;SDS011;56050;55.558;-4.644;2023-06-14T05:45:20;11.82;;;4.88;;
64851;SDS011;56050;55.558;-4.644;2023-06-14T05:47:45;11.93;;;3.58;;
64851;SDS011;56050;55.558;-4.644;2023-06-14T05:50:10;8.90;;;4.38;;
64851;SDS011;56050;55.558;-4.644;2023-06-14T05:52:36;10.25;;;4.10;;
64851;SDS011;56050;55.558;-4.644;2023-06-14T05:55:02;15.50;;;4.55;;
64851;SDS011;56050;55.558;-4.644;2023-06-14T05:57:28;13.35;;;4.38;;
64851;SDS011;56050;55.558;-4.644;2023-06-14T05:59:54;8.98;;;4.60;;
64851;SDS011;56050;55.558;-4.644;2023-06-14T06:02:20;13.43;;;5.82;;
64851;SDS011;56050;55.558;-4.644;2023-06-14T06:04:45;15.60;;;4.70;;
64851;SDS011;56050;55.558;-4.644;2023-06-14T06:07:11;18.88;;;5.43;;
64851;SDS011;56050;55.558;-4.644;2023-06-14T06:09:36;18.63;;;5.28;;
64851;SDS011;56050;55.558;-4.644;2023-06-14T06:12:02;34.92;;;6.22;;
64851;SDS011;56050;55.558;-4.644;2023-06-14T06:14:27;35.88;;;7.70;;
64851;SDS011;56050;55.558;-4.644;2023-06-14T06:16:53;32.20;;;6.57;;
64851;SDS011;56050;55.558;-4.644;2023-06-14T06:19:19;26.77;;;5.07;;
64851;SDS011;56050;55.558;-4.644;2023-06-14T06:21:45;26.95;;;5.63;;
64851;SDS011;56050;55.558;-4.644;2023-06-14T06:24:11;27.52;;;5.35;;
64851;SDS011;56050;55.558;-4.644;2023-06-14T06:26:36;27.25;;;5.10;;
64851;SDS011;56050;55.558;-4.644;2023-06-14T06:29:02;39.28;;;5.78;;
64851;SDS011;56050;55.558;-4.644;2023-06-14T06:31:27;40.58;;;6.35;;
64851;SDS011;56050;55.558;-4.644;2023-06-14T06:33:56;24.23;;;5.72;;
64851;SDS011;56050;55.558;-4.644;2023-06-14T06:36:21;29.20;;;5.82;;
64851;SDS011;56050;55.558;-4.644;2023-06-14T06:38:47;44.13;;;5.47;;
64851;SDS011;56050;55.558;-4.644;2023-06-14T06:41:13;26.45;;;5.45;;
64851;SDS011;56050;55.558;-4.644;2023-06-14T06:43:38;24.08;;;5.35;;
64851;SDS011;56050;55.558;-4.644;2023-06-14T06:46:04;20.90;;;4.47;;
64851;SDS011;56050;55.558;-4.644;2023-06-14T06:48:29;19.05;;;4.63;;
64851;SDS011;56050;55.558;-4.644;2023-06-14T06:50:55;24.30;;;4.65;;
64851;SDS011;56050;55.558;-4.644;2023-06-14T06:53:21;24.10;;;4.88;;
64851;SDS011;56050;55.558;-4.644;2023-06-14T06:55:46;29.63;;;5.20;;
64851;SDS011;56050;55.558;-4.644;2023-06-14T06:58:12;19.13;;;5.68;;
64851;SDS011;56050;55.558;-4.644;2023-06-14T07:00:38;17.50;;;5.13;;
64851;SDS011;56050;55.558;-4.644;2023-06-14T07:03:04;10.00;;;4.22;;
64851;SDS011;56050;55.558;-4.644;2023-06-14T07:05:30;15.25;;;4.22;;
64851;SDS011;56050;55.558;-4.644;2023-06-14T07:07:55;23.70;;;4.35;;
64851;SDS011;56050;55.558;-4.644;2023-06-14T07:10:21;17.90;;;4.85;;
64851;SDS011;56050;55.558;-4.644;2023-06-14T07:12:46;21.65;;;4.70;;
64851;SDS011;56050;55.558;-4.644;2023-06-14T07:15:12;22.85;;;4.95;;
64851;SDS011;56050;55.558;-4.644;2023-06-14T07:17:37;13.48;;;5.28;;
64851;SDS011;56050;55.558;-4.644;2023-06-14T07:20:03;19.80;;;4.20;;
64851;SDS011;56050;55.558;-4.644;2023-06-14T07:22:32;24.90;;;4.78;;
64851;SDS011;56050;55.558;-4.644;2023-06-14T07:24:58;24.90;;;4.38;;
64851;SDS011;56050;55.558;-4.644;2023-06-14T07:27:23;24.58;;;4.20;;
64851;SDS011;56050;55.558;-4.644;2023-06-14T07:29:48;26.80;;;3.92;;
64851;SDS011;56050;55.558;-4.644;2023-06-14T07:32:14;29.63;;;4.65;;
64851;SDS011;56050;55.558;-4.644;2023-06-14T07:34:39;25.42;;;3.58;;
64851;SDS011;56050;55.558;-4.644;2023-06-14T07:37:05;23.42;;;5.28;;
64851;SDS011;56050;55.558;-4.644;2023-06-14T07:39:31;21.33;;;4.60;;
64851;SDS011;56050;55.558;-4.644;2023-06-14T07:41:56;21.70;;;3.95;;
64851;SDS011;56050;55.558;-4.644;2023-06-14T07:44:21;16.80;;;4.38;;
64851;SDS011;56050;55.558;-4.644;2023-06-14T07:46:47;23.50;;;4.78;;
64851;SDS011;56050;55.558;-4.644;2023-06-14T07:49:14;20.63;;;4.80;;
64851;SDS011;56050;55.558;-4.644;2023-06-14T07:51:40;13.02;;;3.75;;
64851;SDS011;56050;55.558;-4.644;2023-06-14T07:54:05;14.27;;;3.85;;
64851;SDS011;56050;55.558;-4.644;2023-06-14T07:56:32;17.60;;;4.65;;
64851;SDS011;56050;55.558;-4.644;2023-06-14T07:58:57;20.90;;;5.00;;
64851;SDS011;56050;55.558;-4.644;2023-06-14T08:01:23;16.63;;;4.07;;
64851;SDS011;56050;55.558;-4.644;2023-06-14T08:03:50;15.10;;;4.43;;
64851;SDS011;56050;55.558;-4.644;2023-06-14T08:06:15;17.20;;;3.72;;
64851;SDS011;56050;55.558;-4.644;2023-06-14T08:08:41;15.57;;;3.50;;
64851;SDS011;56050;55.558;-4.644;2023-06-14T08:11:06;15.13;;;3.40;;
64851;SDS011;56050;55.558;-4.644;2023-06-14T08:13:32;10.20;;;3.08;;
64851;SDS011;56050;55.558;-4.644;2023-06-14T08:15:58;12.95;;;3.50;;
64851;SDS011;56050;55.558;-4.644;2023-06-14T08:18:23;7.60;;;3.03;;
64851;SDS011;56050;55.558;-4.644;2023-06-14T08:20:49;8.60;;;3.10;;
64851;SDS011;56050;55.558;-4.644;2023-06-14T08:23:15;9.68;;;2.83;;
64851;SDS011;56050;55.558;-4.644;2023-06-14T08:25:44;6.75;;;3.25;;
64851;SDS011;56050;55.558;-4.644;2023-06-14T08:28:09;5.45;;;2.83;;
64851;SDS011;56050;55.558;-4.644;2023-06-14T08:30:35;7.72;;;3.22;;
64851;SDS011;56050;55.558;-4.644;2023-06-14T08:33:01;7.20;;;2.53;;
64851;SDS011;56050;55.558;-4.644;2023-06-14T08:35:26;6.88;;;3.28;;
64851;SDS011;56050;55.558;-4.644;2023-06-14T08:37:52;6.90;;;2.60;;
64851;SDS011;56050;55.558;-4.644;2023-06-14T08:40:18;7.45;;;2.95;;
64851;SDS011;56050;55.558;-4.644;2023-06-14T08:42:47;6.32;;;2.83;;
64851;SDS011;56050;55.558;-4.644;2023-06-14T08:45:15;4.93;;;2.35;;
64851;SDS011;56050;55.558;-4.644;2023-06-14T08:47:41;5.45;;;2.60;;
64851;SDS011;56050;55.558;-4.644;2023-06-14T08:50:06;8.35;;;2.65;;
64851;SDS011;56050;55.558;-4.644;2023-06-14T08:52:33;5.10;;;2.95;;
64851;SDS011;56050;55.558;-4.644;2023-06-14T08:55:05;4.18;;;2.65;;
64851;SDS011;56050;55.558;-4.644;2023-06-14T08:57:33;5.72;;;2.70;;
64851;SDS011;56050;55.558;-4.644;2023-06-14T09:00:02;6.15;;;2.80;;
64851;SDS011;56050;55.558;-4.644;2023-06-14T09:02:38;5.47;;;2.08;;
64851;SDS011;56050;55.558;-4.644;2023-06-14T09:05:09;6.50;;;2.70;;
64851;SDS011;56050;55.558;-4.644;2023-06-14T09:07:43;5.07;;;2.38;;
64851;SDS011;56050;55.558;-4.644;2023-06-14T09:10:09;4.68;;;2.53;;
64851;SDS011;56050;55.558;-4.644;2023-06-14T09:12:37;6.80;;;3.63;;
64851;SDS011;56050;55.558;-4.644;2023-06-14T09:15:06;5.68;;;2.33;;
64851;SDS011;56050;55.558;-4.644;2023-06-14T09:17:33;4.40;;;1.90;;
64851;SDS011;56050;55.558;-4.644;2023-06-14T09:20:04;5.68;;;2.30;;
64851;SDS011;56050;55.558;-4.644;2023-06-14T09:22:31;4.50;;;2.17;;
64851;SDS011;56050;55.558;-4.644;2023-06-14T09:24:57;4.78;;;1.77;;
64851;SDS011;56050;55.558;-4.644;2023-06-14T09:27:25;4.97;;;2.10;;
64851;SDS011;56050;55.558;-4.644;2023-06-14T09:29:51;4.25;;;2.25;;
64851;SDS011;56050;55.558;-4.644;2023-06-14T09:32:17;9.13;;;2.78;;
64851;SDS011;56050;55.558;-4.644;2023-06-14T09:34:43;6.53;;;2.20;;
64851;SDS011;56050;55.558;-4.644;2023-06-14T09:37:09;5.65;;;2.28;;
64851;SDS011;56050;55.558;-4.644;2023-06-14T09:39:34;5.40;;;2.08;;
64851;SDS011;56050;55.558;-4.644;2023-06-14T09:42:00;5.13;;;2.03;;
64851;SDS011;56050;55.558;-4.644;2023-06-14T09:44:25;5.40;;;2.15;;
64851;SDS011;56050;55.558;-4.644;2023-06-14T09:46:53;4.60;;;1.77;;
64851;SDS011;56050;55.558;-4.644;2023-06-14T09:49:21;4.70;;;2.53;;
64851;SDS011;56050;55.558;-4.644;2023-06-14T09:51:47;4.47;;;1.80;;
64851;SDS011;56050;55.558;-4.644;2023-06-14T09:54:16;5.07;;;2.13;;
64851;SDS011;56050;55.558;-4.644;2023-06-14T09:56:48;6.63;;;2.28;;
64851;SDS011;56050;55.558;-4.644;2023-06-14T09:59:14;5.72;;;2.15;;
64851;SDS011;56050;55.558;-4.644;2023-06-14T10:01:44;6.07;;;2.35;;
64851;SDS011;56050;55.558;-4.644;2023-06-14T10:04:10;4.40;;;1.95;;
64851;SDS011;56050;55.558;-4.644;2023-06-14T10:06:43;4.93;;;2.90;;
64851;SDS011;56050;55.558;-4.644;2023-06-14T10:09:11;4.57;;;2.33;;
64851;SDS011;56050;55.558;-4.644;2023-06-14T10:11:37;3.58;;;1.55;;
64851;SDS011;56050;55.558;-4.644;2023-06-14T10:14:10;5.05;;;2.10;;
64851;SDS011;56050;55.558;-4.644;2023-06-14T10:19:34;5.32;;;2.03;;
64851;SDS011;56050;55.558;-4.644;2023-06-14T10:22:12;4.25;;;2.05;;
64851;SDS011;56050;55.558;-4.644;2023-06-14T10:24:42;4.15;;;1.80;;
64851;SDS011;56050;55.558;-4.644;2023-06-14T10:27:09;7.88;;;2.05;;
64851;SDS011;56050;55.558;-4.644;2023-06-14T10:32:18;5.82;;;2.35;;
64851;SDS011;56050;55.558;-4.644;2023-06-14T10:34:45;5.00;;;1.80;;
64851;SDS011;56050;55.558;-4.644;2023-06-14T10:37:11;4.68;;;2.10;;
64851;SDS011;56050;55.558;-4.644;2023-06-14T10:39:41;6.47;;;1.63;;
64851;SDS011;56050;55.558;-4.644;2023-06-14T10:42:10;4.20;;;1.73;;
64851;SDS011;56050;55.558;-4.644;2023-06-14T10:44:40;5.35;;;2.30;;
64851;SDS011;56050;55.558;-4.644;2023-06-14T10:47:19;3.67;;;1.65;;
64851;SDS011;56050;55.558;-4.644;2023-06-14T10:49:49;4.00;;;1.92;;
64851;SDS011;56050;55.558;-4.644;2023-06-14T10:52:17;4.05;;;1.88;;
64851;SDS011;56050;55.558;-4.644;2023-06-14T10:55:46;4.20;;;2.03;;
64851;SDS011;56050;55.558;-4.644;2023-06-14T10:57:45;4.40;;;1.98;;
64851;SDS011;56050;55.558;-4.644;2023-06-14T11:00:17;5.18;;;2.03;;
64851;SDS011;56050;55.558;-4.644;2023-06-14T11:05:30;4.03;;;1.67;;
64851;SDS011;56050;55.558;-4.644;2023-06-14T11:11:10;6.30;;;2.80;;
64851;SDS011;56050;55.558;-4.644;2023-06-14T11:13:38;6.03;;;2.63;;
64851;SDS011;56050;55.558;-4.644;2023-06-14T11:16:12;5.05;;;2.92;;
64851;SDS011;56050;55.558;-4.644;2023-06-14T11:18:39;6.00;;;3.30;;
64851;SDS011;56050;55.558;-4.644;2023-06-14T11:21:04;6.90;;;3.15;;
64851;SDS011;56050;55.558;-4.644;2023-06-14T11:23:30;8.88;;;2.95;;
64851;SDS011;56050;55.558;-4.644;2023-06-14T11:25:56;6.28;;;3.05;;
64851;SDS011;56050;55.558;-4.644;2023-06-14T11:28:21;5.25;;;2.38;;
64851;SDS011;56050;55.558;-4.644;2023-06-14T11:30:48;7.15;;;3.40;;
64851;SDS011;56050;55.558;-4.644;2023-06-14T11:33:24;7.82;;;3.38;;
64851;SDS011;56050;55.558;-4.644;2023-06-14T11:35:50;9.18;;;2.53;;
64851;SDS011;56050;55.558;-4.644;2023-06-14T11:38:16;6.90;;;3.17;;
64851;SDS011;56050;55.558;-4.644;2023-06-14T11:40:41;6.40;;;3.17;;
64851;SDS011;56050;55.558;-4.644;2023-06-14T11:43:07;8.13;;;3.45;;
64851;SDS011;56050;55.558;-4.644;2023-06-14T11:45:33;5.25;;;2.83;;
64851;SDS011;56050;55.558;-4.644;2023-06-14T11:47:58;6.05;;;3.28;;
64851;SDS011;56050;55.558;-4.644;2023-06-14T11:50:24;6.55;;;3.00;;
64851;SDS011;56050;55.558;-4.644;2023-06-14T11:52:54;6.60;;;3.03;;
64851;SDS011;56050;55.558;-4.644;2023-06-14T11:55:21;8.45;;;2.80;;
64851;SDS011;56050;55.558;-4.644;2023-06-14T11:57:47;4.60;;;2.65;;
64851;SDS011;56050;55.558;-4.644;2023-06-14T12:00:12;5.55;;;2.97;;
64851;SDS011;56050;55.558;-4.644;2023-06-14T12:02:40;5.18;;;2.58;;
64851;SDS011;56050;55.558;-4.644;2023-06-14T12:05:06;6.00;;;3.30;;
64851;SDS011;56050;55.558;-4.644;2023-06-14T12:07:34;5.15;;;2.53;;
64851;SDS011;56050;55.558;-4.644;2023-06-14T12:10:05;7.40;;;2.67;;
64851;SDS011;56050;55.558;-4.644;2023-06-14T12:12:37;4.82;;;2.58;;
64851;SDS011;56050;55.558;-4.644;2023-06-14T12:15:06;6.50;;;2.90;;
64851;SDS011;56050;55.558;-4.644;2023-06-14T12:17:36;6.60;;;3.10;;
64851;SDS011;56050;55.558;-4.644;2023-06-14T12:20:06;4.70;;;2.50;;
64851;SDS011;56050;55.558;-4.644;2023-06-14T12:22:36;4.47;;;2.05;;
64851;SDS011;56050;55.558;-4.644;2023-06-14T12:25:03;5.63;;;2.25;;
64851;SDS011;56050;55.558;-4.644;2023-06-14T12:27:29;6.38;;;2.30;;
64851;SDS011;56050;55.558;-4.644;2023-06-14T12:30:01;5.10;;;2.65;;
64851;SDS011;56050;55.558;-4.644;2023-06-14T12:32:28;5.15;;;2.22;;
64851;SDS011;56050;55.558;-4.644;2023-06-14T12:34:54;5.43;;;3.20;;
64851;SDS011;56050;55.558;-4.644;2023-06-14T12:37:20;8.32;;;2.75;;
64851;SDS011;56050;55.558;-4.644;2023-06-14T12:39:45;7.78;;;3.08;;
64851;SDS011;56050;55.558;-4.644;2023-06-14T12:42:10;8.27;;;2.75;;
64851;SDS011;56050;55.558;-4.644;2023-06-14T12:44:36;5.38;;;2.63;;
64851;SDS011;56050;55.558;-4.644;2023-06-14T12:47:05;6.65;;;3.10;;
64851;SDS011;56050;55.558;-4.644;2023-06-14T12:49:34;6.57;;;3.08;;
64851;SDS011;56050;55.558;-4.644;2023-06-14T12:51:59;6.43;;;3.38;;
64851;SDS011;56050;55.558;-4.644;2023-06-14T12:54:24;6.57;;;3.30;;
64851;SDS011;56050;55.558;-4.644;2023-06-14T12:56:53;5.68;;;2.58;;
64851;SDS011;56050;55.558;-4.644;2023-06-14T12:59:20;5.90;;;3.05;;
64851;SDS011;56050;55.558;-4.644;2023-06-14T13:01:45;5.18;;;2.47;;
64851;SDS011;56050;55.558;-4.644;2023-06-14T13:04:12;6.30;;;2.70;;
64851;SDS011;56050;55.558;-4.644;2023-06-14T13:06:38;7.78;;;2.92;;
64851;SDS011;56050;55.558;-4.644;2023-06-14T13:09:03;5.45;;;2.92;;
64851;SDS011;56050;55.558;-4.644;2023-06-14T13:11:29;5.82;;;2.53;;
64851;SDS011;56050;55.558;-4.644;2023-06-14T13:13:55;5.43;;;2.80;;
64851;SDS011;56050;55.558;-4.644;2023-06-14T13:16:20;9.15;;;2.72;;
64851;SDS011;56050;55.558;-4.644;2023-06-14T13:18:46;5.53;;;2.40;;
64851;SDS011;56050;55.558;-4.644;2023-06-14T13:21:11;8.32;;;2.67;;
64851;SDS011;56050;55.558;-4.644;2023-06-14T13:23:37;7.57;;;2.22;;
64851;SDS011;56050;55.558;-4.644;2023-06-14T13:26:02;8.00;;;2.85;;
64851;SDS011;56050;55.558;-4.644;2023-06-14T13:28:27;6.82;;;2.78;;
64851;SDS011;56050;55.558;-4.644;2023-06-14T13:30:53;5.95;;;2.50;;
64851;SDS011;56050;55.558;-4.644;2023-06-14T13:33:20;5.35;;;2.63;;
64851;SDS011;56050;55.558;-4.644;2023-06-14T13:35:46;6.60;;;2.63;;
64851;SDS011;56050;55.558;-4.644;2023-06-14T13:38:13;4.72;;;1.98;;
64851;SDS011;56050;55.558;-4.644;2023-06-14T13:40:39;5.43;;;2.15;;
64851;SDS011;56050;55.558;-4.644;2023-06-14T13:43:05;4.97;;;2.40;;
64851;SDS011;56050;55.558;-4.644;2023-06-14T13:45:31;4.43;;;1.95;;
64851;SDS011;56050;55.558;-4.644;2023-06-14T13:47:56;6.45;;;2.08;;
64851;SDS011;56050;55.558;-4.644;2023-06-14T13:50:22;3.45;;;1.38;;
64851;SDS011;56050;55.558;-4.644;2023-06-14T13:52:47;5.25;;;1.75;;
64851;SDS011;56050;55.558;-4.644;2023-06-14T13:55:12;5.60;;;2.28;;
64851;SDS011;56050;55.558;-4.644;2023-06-14T13:57:39;3.58;;;1.55;;
64851;SDS011;56050;55.558;-4.644;2023-06-14T14:00:05;3.42;;;1.73;;
64851;SDS011;56050;55.558;-4.644;2023-06-14T14:02:30;5.47;;;1.73;;
64851;SDS011;56050;55.558;-4.644;2023-06-14T14:04:56;4.45;;;1.25;;
64851;SDS011;56050;55.558;-4.644;2023-06-14T14:07:22;5.63;;;1.90;;
64851;SDS011;56050;55.558;-4.644;2023-06-14T14:09:48;5.75;;;3.17;;
64851;SDS011;56050;55.558;-4.644;2023-06-14T14:12:14;5.53;;;2.70;;
64851;SDS011;56050;55.558;-4.644;2023-06-14T14:14:39;5.43;;;2.90;;
64851;SDS011;56050;55.558;-4.644;2023-06-14T14:17:05;7.95;;;3.75;;
64851;SDS011;56050;55.558;-4.644;2023-06-14T14:19:31;6.03;;;2.85;;
64851;SDS011;56050;55.558;-4.644;2023-06-14T14:21:57;6.22;;;3.35;;
64851;SDS011;56050;55.558;-4.644;2023-06-14T14:24:22;6.53;;;3.35;;
64851;SDS011;56050;55.558;-4.644;2023-06-14T14:26:48;6.78;;;2.78;;
64851;SDS011;56050;55.558;-4.644;2023-06-14T14:29:14;6.63;;;3.20;;
64851;SDS011;56050;55.558;-4.644;2023-06-14T14:31:40;5.22;;;2.83;;
64851;SDS011;56050;55.558;-4.644;2023-06-14T14:34:06;5.97;;;2.53;;
64851;SDS011;56050;55.558;-4.644;2023-06-14T14:36:31;5.95;;;3.00;;
64851;SDS011;56050;55.558;-4.644;2023-06-14T14:38:59;7.35;;;2.28;;
64851;SDS011;56050;55.558;-4.644;2023-06-14T14:41:24;6.25;;;2.03;;
64851;SDS011;56050;55.558;-4.644;2023-06-14T14:43:50;6.05;;;2.58;;
64851;SDS011;56050;55.558;-4.644;2023-06-14T14:46:15;4.85;;;2.00;;